Etihad Airways Virtual Airport Information Service

Muscat International Airport

ICAO: OOMS Country: Oman
Latitude: 23.5933 Longitude: 58.2844
Latest Arrival : OMA204 (VABB-OOMS) Latest Departure : FDB132 (OOMS-OMDB)


WX CaptureLIVE
Data provided by noaa.gov | Recorded at 09:00:33

METAR : OOMS 150750Z 01008KT CAVOK 35/17 Q1009 NOSIG

TAF : OOMS 150500Z 1506/1612 04012KT 8000 NSC BECMG 1518/1520 20008KT BECMG 1606/1608 01012KT


Runway Data for OOMS
Data provided by openaviationdata.com

Runway ID Mag Var Hdg Length Elevation Surface ILS Freq ILS Id ILS Slope

Muscat International Airport, Oman
Use only for reference purposes